This is the latest recevied weather packets stored in our database for station/object DH5DY-6. If no packets are shown the sender has not sent any weather packets the latest 10 day(s).
| Time | Temp. | Humidity | Pressure | Rain* | Wind** | Luminosity | Snow |
|---|---|---|---|---|---|---|---|
| 1787416237 | 17.22° C | 73% | 1018.5 hPa | 0 mm | - | 105 W/m² | - |
| 1787415637 | 17.78° C | 74% | 1018.4 hPa | 0 mm | - | 308 W/m² | - |
| 1787415037 | 17.78° C | 70% | 1018.4 hPa | 0 mm | - | 316 W/m² | - |
| 1787414437 | 17.78° C | 69% | 1018.4 hPa | 0 mm | - | 343 W/m² | - |
| 1787413837 | 17.78° C | 69% | 1018.3 hPa | 0 mm | - | 350 W/m² | - |
| 1787413237 | 17.22° C | 69% | 1018.3 hPa | 0 mm | - | 422 W/m² | - |
| 1787412636 | 16.67° C | 69% | 1018.3 hPa | 0 mm | - | 311 W/m² | - |
| 1787412036 | 16.67° C | 74% | 1018.3 hPa | 0 mm | - | 257 W/m² | - |
| 1787411436 | 17.22° C | 72% | 1018.2 hPa | 0 mm | - | 109 W/m² | - |
| 1787410236 | 17.22° C | 72% | 1018.2 hPa | 0 mm | - | 121 W/m² | - |
| 1787409637 | 17.22° C | 73% | 1018.1 hPa | 0 mm | - | 234 W/m² | - |
| 1787409036 | 17.22° C | 73% | 1018 hPa | 0 mm | - | 262 W/m² | - |
| 1787408436 | 16.67° C | 72% | 1018.1 hPa | 0 mm | - | 461 W/m² | - |
| 1787407236 | 17.22° C | 71% | 1017.8 hPa | 0 mm | - | 536 W/m² | - |
| 1787406636 | 17.22° C | 74% | 1017.7 hPa | 0 mm | - | 635 W/m² | - |
| 1787405437 | 15.56° C | 79% | 1017.6 hPa | 0 mm | - | 265 W/m² | - |
| 1787404836 | 15.56° C | 82% | 1017.5 hPa | 0 mm | - | 227 W/m² | - |
| 1787403636 | 15.56° C | 82% | 1017.6 hPa | 0.25 mm | - | 236 W/m² | - |
| 1787403035 | 15.56° C | 81% | 1017.6 hPa | 0.51 mm | - | 176 W/m² | - |
| 1787401835 | 14.44° C | 86% | 1017.2 hPa | 0.51 mm | - | 907 W/m² | - |
| 1787401235 | 13.89° C | 86% | 1017.5 hPa | 0.51 mm | - | 271 W/m² | - |
| 1787400036 | 15° C | 81% | 1017.3 hPa | 0.25 mm | - | 46 W/m² | - |
| 1787399435 | 15.56° C | 78% | 1017.2 hPa | 0 mm | - | 107 W/m² | - |
| 1787398236 | 16.67° C | 76% | 1016.7 hPa | 0 mm | - | 954 W/m² | - |
| 1787397635 | 16.67° C | 77% | 1016.4 hPa | 0 mm | - | 374 W/m² | - |
* Rain latest hour (hover to see other rain measurements)
** Current wind speed in m/s (hover to see current wind gust speed)